sensor_id;sensor_type;location;lat;lon;timestamp;pressure;altitude;pressure_sealevel;temperature;humidity
38716;BME280;24833;49.324;8.694;2023-02-28T00:01:31;100694.78;;;-0.64;57.06
38716;BME280;24833;49.324;8.694;2023-02-28T00:03:59;100692.34;;;-0.67;57.04
38716;BME280;24833;49.324;8.694;2023-02-28T00:06:27;100693.41;;;-0.70;57.12
38716;BME280;24833;49.324;8.694;2023-02-28T00:08:54;100691.84;;;-0.72;57.03
38716;BME280;24833;49.324;8.694;2023-02-28T00:11:21;100694.63;;;-0.75;57.00
38716;BME280;24833;49.324;8.694;2023-02-28T00:13:48;100694.84;;;-0.78;56.98
38716;BME280;24833;49.324;8.694;2023-02-28T00:16:21;100685.50;;;-0.83;56.86
38716;BME280;24833;49.324;8.694;2023-02-28T00:18:49;100683.94;;;-0.85;57.05
38716;BME280;24833;49.324;8.694;2023-02-28T00:21:19;100691.91;;;-0.87;57.02
38716;BME280;24833;49.324;8.694;2023-02-28T00:23:46;100690.41;;;-0.91;57.00
38716;BME280;24833;49.324;8.694;2023-02-28T00:26:14;100686.22;;;-0.93;56.90
38716;BME280;24833;49.324;8.694;2023-02-28T00:28:44;100689.13;;;-0.98;57.04
38716;BME280;24833;49.324;8.694;2023-02-28T00:31:11;100680.53;;;-1.00;56.99
38716;BME280;24833;49.324;8.694;2023-02-28T00:33:38;100683.31;;;-1.03;57.01
38716;BME280;24833;49.324;8.694;2023-02-28T00:36:09;100682.59;;;-1.05;56.96
38716;BME280;24833;49.324;8.694;2023-02-28T00:38:37;100689.72;;;-1.07;57.02
38716;BME280;24833;49.324;8.694;2023-02-28T00:41:04;100679.31;;;-1.08;57.06
38716;BME280;24833;49.324;8.694;2023-02-28T00:43:34;100686.44;;;-1.11;56.98
38716;BME280;24833;49.324;8.694;2023-02-28T00:46:02;100686.56;;;-1.12;56.94
38716;BME280;24833;49.324;8.694;2023-02-28T00:48:30;100688.41;;;-1.14;57.06
38716;BME280;24833;49.324;8.694;2023-02-28T00:50:57;100686.00;;;-1.17;57.27
38716;BME280;24833;49.324;8.694;2023-02-28T00:53:25;100686.94;;;-1.18;57.06
38716;BME280;24833;49.324;8.694;2023-02-28T00:55:52;100692.28;;;-1.20;57.13
38716;BME280;24833;49.324;8.694;2023-02-28T00:58:19;100690.56;;;-1.21;57.14
38716;BME280;24833;49.324;8.694;2023-02-28T01:00:46;100677.59;;;-1.22;57.47
38716;BME280;24833;49.324;8.694;2023-02-28T01:03:17;100689.75;;;-1.21;57.29
38716;BME280;24833;49.324;8.694;2023-02-28T01:05:45;100688.06;;;-1.22;57.11
38716;BME280;24833;49.324;8.694;2023-02-28T01:08:13;100688.06;;;-1.22;57.30
38716;BME280;24833;49.324;8.694;2023-02-28T01:10:41;100682.81;;;-1.22;57.18
38716;BME280;24833;49.324;8.694;2023-02-28T01:13:08;100681.16;;;-1.23;57.15
38716;BME280;24833;49.324;8.694;2023-02-28T01:15:46;100680.31;;;-1.24;57.22
38716;BME280;24833;49.324;8.694;2023-02-28T01:18:16;100686.38;;;-1.23;57.17
38716;BME280;24833;49.324;8.694;2023-02-28T01:20:43;100683.03;;;-1.25;57.13
38716;BME280;24833;49.324;8.694;2023-02-28T01:23:10;100684.88;;;-1.27;57.25
38716;BME280;24833;49.324;8.694;2023-02-28T01:25:38;100682.25;;;-1.27;57.30
38716;BME280;24833;49.324;8.694;2023-02-28T01:28:05;100678.91;;;-1.29;57.34
38716;BME280;24833;49.324;8.694;2023-02-28T01:30:34;100688.66;;;-1.31;57.17
38716;BME280;24833;49.324;8.694;2023-02-28T01:33:01;100680.91;;;-1.33;57.11
38716;BME280;24833;49.324;8.694;2023-02-28T01:35:35;100686.22;;;-1.34;57.17
38716;BME280;24833;49.324;8.694;2023-02-28T01:38:02;100679.28;;;-1.35;57.30
38716;BME280;24833;49.324;8.694;2023-02-28T01:40:46;100683.81;;;-1.38;57.28
38716;BME280;24833;49.324;8.694;2023-02-28T01:43:39;100676.88;;;-1.39;57.17
38716;BME280;24833;49.324;8.694;2023-02-28T01:46:16;100675.22;;;-1.40;57.39
38716;BME280;24833;49.324;8.694;2023-02-28T01:49:15;100673.50;;;-1.41;57.26
38716;BME280;24833;49.324;8.694;2023-02-28T01:51:51;100673.50;;;-1.41;57.33
38716;BME280;24833;49.324;8.694;2023-02-28T01:54:26;100673.50;;;-1.41;57.32
38716;BME280;24833;49.324;8.694;2023-02-28T01:57:04;100671.81;;;-1.42;57.15
38716;BME280;24833;49.324;8.694;2023-02-28T01:59:42;100664.91;;;-1.43;57.29
38716;BME280;24833;49.324;8.694;2023-02-28T02:02:14;100672.03;;;-1.45;57.46
38716;BME280;24833;49.324;8.694;2023-02-28T02:05:18;100675.59;;;-1.46;57.19
38716;BME280;24833;49.324;8.694;2023-02-28T02:07:48;100667.72;;;-1.46;57.53
38716;BME280;24833;49.324;8.694;2023-02-28T02:10:34;100660.81;;;-1.47;57.43
38716;BME280;24833;49.324;8.694;2023-02-28T02:34:34;100655.41;;;-1.58;57.06
38716;BME280;24833;49.324;8.694;2023-02-28T02:37:25;100652.06;;;-1.60;57.21
38716;BME280;24833;49.324;8.694;2023-02-28T02:40:16;100647.84;;;-1.62;57.41
38716;BME280;24833;49.324;8.694;2023-02-28T02:43:13;100645.31;;;-1.64;57.31
38716;BME280;24833;49.324;8.694;2023-02-28T02:45:56;100650.66;;;-1.66;57.48
38716;BME280;24833;49.324;8.694;2023-02-28T02:48:30;100650.66;;;-1.66;58.21
38716;BME280;24833;49.324;8.694;2023-02-28T02:51:01;100654.28;;;-1.68;57.60
38716;BME280;24833;49.324;8.694;2023-02-28T02:53:58;100655.13;;;-1.68;57.39
38716;BME280;24833;49.324;8.694;2023-02-28T02:56:29;100656.00;;;-1.67;57.67
38716;BME280;24833;49.324;8.694;2023-02-28T02:59:01;100654.28;;;-1.68;57.37
38716;BME280;24833;49.324;8.694;2023-02-28T03:01:31;100649.16;;;-1.70;57.60
38716;BME280;24833;49.324;8.694;2023-02-28T03:04:08;100651.78;;;-1.70;58.21
38716;BME280;24833;49.324;8.694;2023-02-28T03:06:37;100651.78;;;-1.70;57.84
38716;BME280;24833;49.324;8.694;2023-02-28T03:09:04;100652.59;;;-1.69;57.63
38716;BME280;24833;49.324;8.694;2023-02-28T03:11:32;100648.31;;;-1.70;57.59
38716;BME280;24833;49.324;8.694;2023-02-28T03:17:39;100644.97;;;-1.72;57.69
38716;BME280;24833;49.324;8.694;2023-02-28T03:23:17;100638.88;;;-1.73;57.51
38716;BME280;24833;49.324;8.694;2023-02-28T03:25:56;100648.53;;;-1.73;58.09
38716;BME280;24833;49.324;8.694;2023-02-28T03:28:47;100646.75;;;-1.73;58.07
38716;BME280;24833;49.324;8.694;2023-02-28T03:31:32;100645.91;;;-1.73;57.79
38716;BME280;24833;49.324;8.694;2023-02-28T03:34:17;100645.06;;;-1.74;57.73
38716;BME280;24833;49.324;8.694;2023-02-28T03:36:51;100645.06;;;-1.74;57.77
38716;BME280;24833;49.324;8.694;2023-02-28T03:39:28;100645.13;;;-1.75;57.58
38716;BME280;24833;49.324;8.694;2023-02-28T03:42:11;100647.75;;;-1.75;57.58
38716;BME280;24833;49.324;8.694;2023-02-28T03:44:53;100644.41;;;-1.77;57.64
38716;BME280;24833;49.324;8.694;2023-02-28T03:47:33;100645.34;;;-1.78;57.54
38716;BME280;24833;49.324;8.694;2023-02-28T03:50:18;100643.66;;;-1.79;57.55
38716;BME280;24833;49.324;8.694;2023-02-28T03:53:03;100646.34;;;-1.81;57.79
38716;BME280;24833;49.324;8.694;2023-02-28T03:55:39;100646.44;;;-1.82;57.61
38716;BME280;24833;49.324;8.694;2023-02-28T04:01:35;100646.66;;;-1.85;57.55
38716;BME280;24833;49.324;8.694;2023-02-28T04:04:05;100644.97;;;-1.86;57.81
38716;BME280;24833;49.324;8.694;2023-02-28T04:06:34;100646.81;;;-1.88;57.68
38716;BME280;24833;49.324;8.694;2023-02-28T04:09:03;100644.22;;;-1.88;57.86
38716;BME280;24833;49.324;8.694;2023-02-28T04:11:37;100638.25;;;-1.90;57.62
38716;BME280;24833;49.324;8.694;2023-02-28T04:14:06;100642.75;;;-1.93;57.81
38716;BME280;24833;49.324;8.694;2023-02-28T04:16:36;100648.91;;;-1.94;57.88
38716;BME280;24833;49.324;8.694;2023-02-28T04:19:05;100641.97;;;-1.95;57.85
38716;BME280;24833;49.324;8.694;2023-02-28T04:21:38;100638.50;;;-1.95;57.69
38716;BME280;24833;49.324;8.694;2023-02-28T04:24:15;100638.63;;;-1.97;57.60
38716;BME280;24833;49.324;8.694;2023-02-28T04:26:46;100643.94;;;-1.98;57.98
38716;BME280;24833;49.324;8.694;2023-02-28T04:29:20;100640.50;;;-1.99;57.88
38716;BME280;24833;49.324;8.694;2023-02-28T04:31:48;100643.22;;;-2.00;58.00
38716;BME280;24833;49.324;8.694;2023-02-28T04:34:15;100644.06;;;-2.00;57.86
38716;BME280;24833;49.324;8.694;2023-02-28T04:36:43;100642.34;;;-2.01;57.84
38716;BME280;24833;49.324;8.694;2023-02-28T04:39:10;100643.22;;;-2.00;57.96
38716;BME280;24833;49.324;8.694;2023-02-28T04:41:37;100645.91;;;-2.02;58.94
38716;BME280;24833;49.324;8.694;2023-02-28T04:44:04;100640.59;;;-2.00;57.93
38716;BME280;24833;49.324;8.694;2023-02-28T04:46:31;100644.06;;;-2.00;57.87
38716;BME280;24833;49.324;8.694;2023-02-28T04:48:58;100642.28;;;-1.99;57.96
38716;BME280;24833;49.324;8.694;2023-02-28T04:51:25;100643.84;;;-1.97;57.96
38716;BME280;24833;49.324;8.694;2023-02-28T04:53:53;100637.69;;;-1.96;58.15
38716;BME280;24833;49.324;8.694;2023-02-28T04:56:21;100634.06;;;-1.93;58.12
38716;BME280;24833;49.324;8.694;2023-02-28T04:58:49;100641.78;;;-1.92;58.14
38716;BME280;24833;49.324;8.694;2023-02-28T05:01:29;100646.00;;;-1.89;57.97
38716;BME280;24833;49.324;8.694;2023-02-28T05:03:59;100645.88;;;-1.87;58.14
38716;BME280;24833;49.324;8.694;2023-02-28T05:06:32;100649.06;;;-1.82;58.18
38716;BME280;24833;49.324;8.694;2023-02-28T05:08:59;100653.38;;;-1.81;58.08
38716;BME280;24833;49.324;8.694;2023-02-28T05:11:30;100646.28;;;-1.79;58.08
38716;BME280;24833;49.324;8.694;2023-02-28T05:14:03;100658.22;;;-1.75;58.32
38716;BME280;24833;49.324;8.694;2023-02-28T05:16:32;100653.75;;;-1.73;58.31
38716;BME280;24833;49.324;8.694;2023-02-28T05:18:59;100653.56;;;-1.70;58.30
38716;BME280;24833;49.324;8.694;2023-02-28T05:21:31;100660.38;;;-1.68;58.50
38716;BME280;24833;49.324;8.694;2023-02-28T05:24:02;100655.78;;;-1.64;58.39
38716;BME280;24833;49.324;8.694;2023-02-28T05:26:33;100655.59;;;-1.61;58.56
38716;BME280;24833;49.324;8.694;2023-02-28T05:29:00;100671.13;;;-1.58;58.42
38716;BME280;24833;49.324;8.694;2023-02-28T05:31:27;100666.50;;;-1.54;58.51
38716;BME280;24833;49.324;8.694;2023-02-28T05:33:55;100670.75;;;-1.52;58.65
38716;BME280;24833;49.324;8.694;2023-02-28T05:36:22;100667.06;;;-1.49;58.60
38716;BME280;24833;49.324;8.694;2023-02-28T05:38:51;100671.19;;;-1.45;59.03
38716;BME280;24833;49.324;8.694;2023-02-28T05:41:19;100673.72;;;-1.44;58.58
38716;BME280;24833;49.324;8.694;2023-02-28T05:43:47;100679.59;;;-1.40;58.66
38716;BME280;24833;49.324;8.694;2023-02-28T05:46:15;100673.31;;;-1.38;58.40
38716;BME280;24833;49.324;8.694;2023-02-28T05:48:49;100680.13;;;-1.35;58.87
38716;BME280;24833;49.324;8.694;2023-02-28T05:51:17;100674.81;;;-1.33;59.03
38716;BME280;24833;49.324;8.694;2023-02-28T05:53:44;100678.19;;;-1.31;58.42
38716;BME280;24833;49.324;8.694;2023-02-28T05:56:11;100677.13;;;-1.29;58.57
38716;BME280;24833;49.324;8.694;2023-02-28T05:58:38;100675.34;;;-1.28;58.45
38716;BME280;24833;49.324;8.694;2023-02-28T06:04:05;100676.19;;;-1.28;58.54
38716;BME280;24833;49.324;8.694;2023-02-28T06:06:33;100683.22;;;-1.28;58.69
38716;BME280;24833;49.324;8.694;2023-02-28T06:09:04;100689.28;;;-1.28;58.59
38716;BME280;24833;49.324;8.694;2023-02-28T06:11:32;100684.16;;;-1.29;58.62
38716;BME280;24833;49.324;8.694;2023-02-28T06:14:00;100691.06;;;-1.28;58.63
38716;BME280;24833;49.324;8.694;2023-02-28T06:16:29;100683.22;;;-1.28;58.49
38716;BME280;24833;49.324;8.694;2023-02-28T06:18:58;100688.44;;;-1.28;58.51
38716;BME280;24833;49.324;8.694;2023-02-28T06:21:26;100690.22;;;-1.29;58.55
38716;BME280;24833;49.324;8.694;2023-02-28T06:23:56;100684.88;;;-1.27;58.60
38716;BME280;24833;49.324;8.694;2023-02-28T06:26:25;100688.38;;;-1.27;58.57
38716;BME280;24833;49.324;8.694;2023-02-28T06:28:52;100689.22;;;-1.26;58.52
38716;BME280;24833;49.324;8.694;2023-02-28T06:31:20;100697.06;;;-1.26;58.55
38716;BME280;24833;49.324;8.694;2023-02-28T06:33:48;100687.44;;;-1.26;58.32
38716;BME280;24833;49.324;8.694;2023-02-28T06:36:16;100693.50;;;-1.25;58.63
38716;BME280;24833;49.324;8.694;2023-02-28T06:38:43;100693.41;;;-1.24;58.77
38716;BME280;24833;49.324;8.694;2023-02-28T06:41:10;100700.22;;;-1.21;58.80
38716;BME280;24833;49.324;8.694;2023-02-28T06:43:41;100696.75;;;-1.22;59.13
38716;BME280;24833;49.324;8.694;2023-02-28T06:46:11;100694.06;;;-1.20;59.04
38716;BME280;24833;49.324;8.694;2023-02-28T06:48:42;100699.09;;;-1.17;58.80
38716;BME280;24833;49.324;8.694;2023-02-28T06:51:13;100696.47;;;-1.17;58.84
38716;BME280;24833;49.324;8.694;2023-02-28T06:53:42;100695.44;;;-1.15;58.87
38716;BME280;24833;49.324;8.694;2023-02-28T06:56:13;100705.00;;;-1.14;58.90
38716;BME280;24833;49.324;8.694;2023-02-28T06:58:40;100701.44;;;-1.13;58.77
38716;BME280;24833;49.324;8.694;2023-02-28T07:01:08;100710.97;;;-1.12;59.17
38716;BME280;24833;49.324;8.694;2023-02-28T07:03:35;100710.88;;;-1.10;59.67
38716;BME280;24833;49.324;8.694;2023-02-28T07:06:04;100706.34;;;-1.08;59.23
38716;BME280;24833;49.324;8.694;2023-02-28T07:08:31;100714.97;;;-1.06;59.26
38716;BME280;24833;49.324;8.694;2023-02-28T07:10:59;100714.78;;;-1.03;60.10
38716;BME280;24833;49.324;8.694;2023-02-28T07:13:26;100723.38;;;-1.01;59.42
38716;BME280;24833;49.324;8.694;2023-02-28T07:16:19;100727.38;;;-0.95;59.15
38716;BME280;24833;49.324;8.694;2023-02-28T07:18:47;100734.13;;;-0.91;59.35
38716;BME280;24833;49.324;8.694;2023-02-28T07:21:15;100739.09;;;-0.87;59.62
38716;BME280;24833;49.324;8.694;2023-02-28T07:23:42;100738.66;;;-0.80;59.36
38716;BME280;24833;49.324;8.694;2023-02-28T07:26:14;100734.72;;;-0.73;59.50
38716;BME280;24833;49.324;8.694;2023-02-28T07:28:43;100728.22;;;-0.68;59.71
38716;BME280;24833;49.324;8.694;2023-02-28T07:31:11;100736.53;;;-0.61;59.65
38716;BME280;24833;49.324;8.694;2023-02-28T07:33:41;100719.44;;;-0.54;60.06
38716;BME280;24833;49.324;8.694;2023-02-28T07:36:12;100729.53;;;-0.48;59.77
38716;BME280;24833;49.324;8.694;2023-02-28T07:38:45;100730.81;;;-0.41;59.80
38716;BME280;24833;49.324;8.694;2023-02-28T07:41:16;100733.78;;;-0.33;60.45
38716;BME280;24833;49.324;8.694;2023-02-28T07:43:44;100734.84;;;-0.22;60.21
38716;BME280;24833;49.324;8.694;2023-02-28T07:46:15;100736.88;;;-0.13;60.08
38716;BME280;24833;49.324;8.694;2023-02-28T07:48:43;100731.00;;;-0.04;60.66
38716;BME280;24833;49.324;8.694;2023-02-28T07:51:10;100732.97;;;0.05;60.89
38716;BME280;24833;49.324;8.694;2023-02-28T07:53:37;100737.50;;;0.16;60.85
38716;BME280;24833;49.324;8.694;2023-02-28T07:56:05;100738.56;;;0.26;60.26
38716;BME280;24833;49.324;8.694;2023-02-28T07:58:32;100731.84;;;0.35;60.72
38716;BME280;24833;49.324;8.694;2023-02-28T08:01:10;100746.00;;;0.45;60.33
38716;BME280;24833;49.324;8.694;2023-02-28T08:03:38;100744.50;;;0.53;60.54
38716;BME280;24833;49.324;8.694;2023-02-28T08:06:07;100745.56;;;0.64;60.68
38716;BME280;24833;49.324;8.694;2023-02-28T08:08:35;100753.63;;;0.73;60.98
38716;BME280;24833;49.324;8.694;2023-02-28T08:11:03;100740.81;;;0.81;60.83
38716;BME280;24833;49.324;8.694;2023-02-28T08:13:31;100737.50;;;0.91;60.81
38716;BME280;24833;49.324;8.694;2023-02-28T08:15:58;100741.38;;;0.98;60.79
38716;BME280;24833;49.324;8.694;2023-02-28T08:18:25;100744.28;;;1.06;60.94
38716;BME280;24833;49.324;8.694;2023-02-28T08:20:52;100747.22;;;1.14;61.14
38716;BME280;24833;49.324;8.694;2023-02-28T08:23:19;100746.56;;;1.23;60.87
38716;BME280;24833;49.324;8.694;2023-02-28T08:25:54;100743.38;;;1.31;61.09
38716;BME280;24833;49.324;8.694;2023-02-28T08:28:22;100737.53;;;1.39;60.78
38716;BME280;24833;49.324;8.694;2023-02-28T08:30:52;100733.41;;;1.47;60.91
38716;BME280;24833;49.324;8.694;2023-02-28T08:33:21;100729.25;;;1.56;60.86
38716;BME280;24833;49.324;8.694;2023-02-28T08:35:48;100737.53;;;1.62;60.99
38716;BME280;24833;49.324;8.694;2023-02-28T08:38:15;100737.78;;;1.71;61.04
38716;BME280;24833;49.324;8.694;2023-02-28T08:40:45;100743.31;;;1.79;61.10
38716;BME280;24833;49.324;8.694;2023-02-28T08:43:12;100727.91;;;1.85;60.92
38716;BME280;24833;49.324;8.694;2023-02-28T08:45:39;100735.34;;;1.91;61.14
38716;BME280;24833;49.324;8.694;2023-02-28T08:48:06;100735.59;;;2.00;61.10
38716;BME280;24833;49.324;8.694;2023-02-28T08:50:33;100727.97;;;2.08;61.16
38716;BME280;24833;49.324;8.694;2023-02-28T08:53:00;100735.38;;;2.14;60.99
38716;BME280;24833;49.324;8.694;2023-02-28T08:55:27;100732.25;;;2.20;60.84
38716;BME280;24833;49.324;8.694;2023-02-28T08:57:54;100739.00;;;2.24;60.89
38716;BME280;24833;49.324;8.694;2023-02-28T09:00:22;100747.13;;;2.32;61.07
38716;BME280;24833;49.324;8.694;2023-02-28T09:02:49;100740.44;;;2.39;60.72
38716;BME280;24833;49.324;8.694;2023-02-28T09:05:16;100738.16;;;2.46;61.19
38716;BME280;24833;49.324;8.694;2023-02-28T09:07:43;100741.91;;;2.55;60.89
38716;BME280;24833;49.324;8.694;2023-02-28T09:10:10;100741.16;;;2.64;60.75
38716;BME280;24833;49.324;8.694;2023-02-28T09:12:37;100740.69;;;2.70;60.60
38716;BME280;24833;49.324;8.694;2023-02-28T09:15:05;100734.94;;;2.76;59.97
38716;BME280;24833;49.324;8.694;2023-02-28T09:17:32;100731.81;;;2.82;60.64
38716;BME280;24833;49.324;8.694;2023-02-28T09:19:59;100736.47;;;2.90;60.91
38716;BME280;24833;49.324;8.694;2023-02-28T09:22:26;100731.53;;;2.96;60.79
38716;BME280;24833;49.324;8.694;2023-02-28T09:24:53;100727.19;;;3.07;61.01
38716;BME280;24833;49.324;8.694;2023-02-28T09:27:20;100730.66;;;3.07;59.74
38716;BME280;24833;49.324;8.694;2023-02-28T09:29:47;100728.16;;;3.06;59.02
38716;BME280;24833;49.324;8.694;2023-02-28T09:32:14;100729.59;;;3.10;59.02
38716;BME280;24833;49.324;8.694;2023-02-28T09:34:42;100734.38;;;3.16;59.86
38716;BME280;24833;49.324;8.694;2023-02-28T09:37:09;100732.09;;;3.22;60.19
38716;BME280;24833;49.324;8.694;2023-02-28T09:39:36;100731.69;;;3.27;59.38
38716;BME280;24833;49.324;8.694;2023-02-28T09:42:03;100732.16;;;3.32;59.67
38716;BME280;24833;49.324;8.694;2023-02-28T09:44:43;100731.66;;;3.38;60.29
38716;BME280;24833;49.324;8.694;2023-02-28T09:47:41;100729.13;;;3.48;60.53
38716;BME280;24833;49.324;8.694;2023-02-28T09:50:55;100729.06;;;3.59;60.89
38716;BME280;24833;49.324;8.694;2023-02-28T09:53:35;100729.38;;;3.66;60.73
38716;BME280;24833;49.324;8.694;2023-02-28T09:56:21;100735.84;;;3.73;60.16
38716;BME280;24833;49.324;8.694;2023-02-28T09:59:09;100732.69;;;3.79;60.14
38716;BME280;24833;49.324;8.694;2023-02-28T10:05:13;100736.25;;;3.89;59.14
38716;BME280;24833;49.324;8.694;2023-02-28T10:10:32;100740.06;;;3.96;59.63
38716;BME280;24833;49.324;8.694;2023-02-28T10:13:04;100737.59;;;4.04;59.97
38716;BME280;24833;49.324;8.694;2023-02-28T10:15:34;100742.88;;;4.04;59.08
38716;BME280;24833;49.324;8.694;2023-02-28T10:18:06;100743.06;;;4.13;60.03
38716;BME280;24833;49.324;8.694;2023-02-28T10:20:39;100742.53;;;4.19;60.17
38716;BME280;24833;49.324;8.694;2023-02-28T10:23:32;100737.03;;;4.22;58.75
38716;BME280;24833;49.324;8.694;2023-02-28T10:26:13;100735.38;;;4.30;59.21
38716;BME280;24833;49.324;8.694;2023-02-28T10:28:40;100737.66;;;4.35;59.30
38716;BME280;24833;49.324;8.694;2023-02-28T10:31:19;100746.44;;;4.45;59.75
38716;BME280;24833;49.324;8.694;2023-02-28T10:33:47;100743.28;;;4.51;59.55
38716;BME280;24833;49.324;8.694;2023-02-28T10:36:23;100741.78;;;4.58;59.07
38716;BME280;24833;49.324;8.694;2023-02-28T10:38:53;100735.69;;;4.68;59.40
38716;BME280;24833;49.324;8.694;2023-02-28T10:41:30;100730.28;;;4.79;60.19
38716;BME280;24833;49.324;8.694;2023-02-28T10:44:22;100736.31;;;4.90;60.68
38716;BME280;24833;49.324;8.694;2023-02-28T10:46:50;100734.13;;;4.96;59.30
38716;BME280;24833;49.324;8.694;2023-02-28T10:49:27;100744.03;;;5.03;59.81
38716;BME280;24833;49.324;8.694;2023-02-28T10:52:00;100734.81;;;5.07;58.20
38716;BME280;24833;49.324;8.694;2023-02-28T10:54:36;100740.13;;;5.07;55.77
38716;BME280;24833;49.324;8.694;2023-02-28T10:57:20;100735.34;;;4.91;56.33
38716;BME280;24833;49.324;8.694;2023-02-28T10:59:52;100736.78;;;5.05;58.85
38716;BME280;24833;49.324;8.694;2023-02-28T11:02:36;100731.22;;;5.08;58.32
38716;BME280;24833;49.324;8.694;2023-02-28T11:05:24;100729.56;;;5.17;58.63
38716;BME280;24833;49.324;8.694;2023-02-28T11:08:06;100723.16;;;5.19;57.84
38716;BME280;24833;49.324;8.694;2023-02-28T11:10:38;100738.47;;;5.26;57.34
38716;BME280;24833;49.324;8.694;2023-02-28T11:13:05;100724.84;;;5.30;56.36
38716;BME280;24833;49.324;8.694;2023-02-28T11:15:33;100728.88;;;5.34;58.03
38716;BME280;24833;49.324;8.694;2023-02-28T11:20:39;100712.31;;;5.42;58.34
38716;BME280;24833;49.324;8.694;2023-02-28T11:23:12;100703.38;;;5.43;57.93
38716;BME280;24833;49.324;8.694;2023-02-28T11:25:52;100710.91;;;5.47;58.69
38716;BME280;24833;49.324;8.694;2023-02-28T11:31:14;100715.09;;;5.50;58.49
38716;BME280;24833;49.324;8.694;2023-02-28T11:36:28;100726.50;;;5.41;58.76
38716;BME280;24833;49.324;8.694;2023-02-28T11:39:00;100707.97;;;5.41;58.26
38716;BME280;24833;49.324;8.694;2023-02-28T11:52:56;100703.38;;;5.53;59.17
38716;BME280;24833;49.324;8.694;2023-02-28T11:55:33;100701.69;;;5.61;58.87
38716;BME280;24833;49.324;8.694;2023-02-28T11:58:33;100705.31;;;5.70;59.53
38716;BME280;24833;49.324;8.694;2023-02-28T12:01:42;100701.66;;;5.81;60.67
38716;BME280;24833;49.324;8.694;2023-02-28T12:13:23;100703.34;;;6.11;59.32
38716;BME280;24833;49.324;8.694;2023-02-28T12:18:42;100709.16;;;6.24;57.75
38716;BME280;24833;49.324;8.694;2023-02-28T12:21:45;100716.56;;;6.20;58.65
38716;BME280;24833;49.324;8.694;2023-02-28T12:26:49;100704.38;;;6.27;59.19
38716;BME280;24833;49.324;8.694;2023-02-28T12:35:26;100689.00;;;6.68;61.40
38716;BME280;24833;49.324;8.694;2023-02-28T12:38:21;100698.84;;;6.86;62.11
38716;BME280;24833;49.324;8.694;2023-02-28T12:41:03;100697.56;;;7.07;60.26
38716;BME280;24833;49.324;8.694;2023-02-28T12:43:39;100694.94;;;7.25;60.01
38716;BME280;24833;49.324;8.694;2023-02-28T12:46:21;100681.06;;;7.31;57.71
38716;BME280;24833;49.324;8.694;2023-02-28T12:48:56;100688.47;;;7.28;56.07
38716;BME280;24833;49.324;8.694;2023-02-28T12:51:25;100684.22;;;7.35;55.67
38716;BME280;24833;49.324;8.694;2023-02-28T12:54:03;100691.75;;;7.40;57.20
38716;BME280;24833;49.324;8.694;2023-02-28T12:57:15;100680.06;;;7.32;57.04
38716;BME280;24833;49.324;8.694;2023-02-28T12:59:57;100674.09;;;7.30;56.29
38716;BME280;24833;49.324;8.694;2023-02-28T13:06:08;100681.81;;;7.42;56.79
38716;BME280;24833;49.324;8.694;2023-02-28T13:09:14;100681.03;;;7.67;59.60
38716;BME280;24833;49.324;8.694;2023-02-28T13:11:50;100675.47;;;7.78;58.23
38716;BME280;24833;49.324;8.694;2023-02-28T13:14:28;100673.44;;;7.98;58.81
38716;BME280;24833;49.324;8.694;2023-02-28T13:22:40;100684.38;;;8.81;57.93
38716;BME280;24833;49.324;8.694;2023-02-28T13:28:13;100678.47;;;9.12;59.79
38716;BME280;24833;49.324;8.694;2023-02-28T13:31:05;100677.66;;;9.27;60.76
38716;BME280;24833;49.324;8.694;2023-02-28T13:38:50;100670.31;;;9.87;61.41
38716;BME280;24833;49.324;8.694;2023-02-28T13:41:42;100685.63;;;10.09;63.62
38716;BME280;24833;49.324;8.694;2023-02-28T13:44:12;100669.44;;;10.19;61.43
38716;BME280;24833;49.324;8.694;2023-02-28T13:49:31;100687.97;;;10.12;60.47
38716;BME280;24833;49.324;8.694;2023-02-28T14:06:16;100676.72;;;8.86;60.32
38716;BME280;24833;49.324;8.694;2023-02-28T14:08:55;100685.06;;;8.91;60.14
38716;BME280;24833;49.324;8.694;2023-02-28T14:11:31;100683.06;;;8.93;60.29
38716;BME280;24833;49.324;8.694;2023-02-28T14:14:00;100682.78;;;9.05;59.99
38716;BME280;24833;49.324;8.694;2023-02-28T14:16:40;100684.63;;;9.28;62.27
38716;BME280;24833;49.324;8.694;2023-02-28T14:19:25;100689.84;;;9.46;62.66
38716;BME280;24833;49.324;8.694;2023-02-28T14:25:20;100690.31;;;9.82;63.66
38716;BME280;24833;49.324;8.694;2023-02-28T14:31:29;100675.25;;;10.22;62.77
38716;BME280;24833;49.324;8.694;2023-02-28T14:37:01;100682.47;;;10.30;61.74
38716;BME280;24833;49.324;8.694;2023-02-28T14:39:30;100682.63;;;10.36;62.31
38716;BME280;24833;49.324;8.694;2023-02-28T14:41:57;100684.41;;;10.44;61.66
38716;BME280;24833;49.324;8.694;2023-02-28T14:44:30;100682.03;;;10.49;62.12
38716;BME280;24833;49.324;8.694;2023-02-28T14:47:00;100689.41;;;10.47;60.40
38716;BME280;24833;49.324;8.694;2023-02-28T14:49:42;100677.13;;;10.30;61.11
38716;BME280;24833;49.324;8.694;2023-02-28T14:52:26;100685.78;;;10.16;60.96
38716;BME280;24833;49.324;8.694;2023-02-28T14:55:00;100690.81;;;10.02;61.06
38716;BME280;24833;49.324;8.694;2023-02-28T14:57:39;100687.66;;;9.99;61.53
38716;BME280;24833;49.324;8.694;2023-02-28T15:00:15;100689.34;;;9.92;61.15
38716;BME280;24833;49.324;8.694;2023-02-28T15:02:43;100687.16;;;9.87;60.46
38716;BME280;24833;49.324;8.694;2023-02-28T15:07:47;100676.34;;;9.72;60.23
38716;BME280;24833;49.324;8.694;2023-02-28T15:10:25;100688.69;;;9.65;60.85
38716;BME280;24833;49.324;8.694;2023-02-28T15:13:04;100688.66;;;9.49;58.27
38716;BME280;24833;49.324;8.694;2023-02-28T15:15:51;100690.31;;;9.34;60.52
38716;BME280;24833;49.324;8.694;2023-02-28T15:18:42;100678.31;;;9.21;58.06
38716;BME280;24833;49.324;8.694;2023-02-28T15:21:15;100686.47;;;9.20;59.74
38716;BME280;24833;49.324;8.694;2023-02-28T15:23:52;100670.81;;;9.17;60.08
38716;BME280;24833;49.324;8.694;2023-02-28T15:26:25;100682.78;;;9.13;58.85
38716;BME280;24833;49.324;8.694;2023-02-28T15:29:02;100685.09;;;8.99;59.55
38716;BME280;24833;49.324;8.694;2023-02-28T15:31:45;100687.38;;;8.86;57.77
38716;BME280;24833;49.324;8.694;2023-02-28T15:34:39;100690.69;;;8.80;60.14